Time;durP1;ratioP1;P1;durP2;ratioP2;P2;SDS_P1;SDS_P2;PMS_P1;PMS_P2;Temp;Humidity;BMP_temperature;BMP_pressure;BME280_temperature;BME280_humidity;BME280_pressure;Samples;Min_cycle;Max_cycle;Signal;HPM_P1;HPM_P2
2020/12/14 00:02:19;;;;;;;1.70;0.80;;;5.20;99.90;;;;;;5096999;28;20418;-58
2020/12/14 00:04:46;;;;;;;1.40;0.90;;;5.30;99.90;;;;;;5097369;28;20436;-60
2020/12/14 00:07:12;;;;;;;1.35;0.80;;;5.40;99.90;;;;;;5097021;28;20418;-58
2020/12/14 00:09:39;;;;;;;1.30;0.90;;;5.40;99.90;;;;;;5096189;28;20422;-58
2020/12/14 00:12:06;;;;;;;2.00;0.80;;;5.40;99.90;;;;;;5096754;28;20718;-59
2020/12/14 00:14:33;;;;;;;1.30;0.90;;;5.50;99.90;;;;;;5096902;28;20511;-58
2020/12/14 00:16:59;;;;;;;1.20;0.85;;;5.50;99.90;;;;;;5096900;28;20465;-57
2020/12/14 00:19:26;;;;;;;1.40;0.80;;;5.50;99.90;;;;;;5096830;28;20479;-59
2020/12/14 00:21:53;;;;;;;1.13;0.80;;;5.40;99.90;;;;;;5096517;28;20421;-59
2020/12/14 00:24:19;;;;;;;1.20;0.90;;;5.40;99.90;;;;;;5096411;28;20418;-58
2020/12/14 00:26:47;;;;;;;1.80;0.90;;;5.40;99.90;;;;;;5095901;28;20515;-59
2020/12/14 00:29:13;;;;;;;1.50;1.00;;;5.40;99.90;;;;;;5095883;28;20842;-59
2020/12/14 00:31:40;;;;;;;1.20;0.80;;;5.30;99.90;;;;;;5096725;28;20470;-59
2020/12/14 00:34:06;;;;;;;2.20;0.88;;;5.30;99.90;;;;;;5096979;28;20491;-59
2020/12/14 00:36:33;;;;;;;2.15;0.73;;;5.30;99.90;;;;;;5096279;28;20422;-59
2020/12/14 00:38:59;;;;;;;1.27;0.80;;;5.40;99.90;;;;;;5095977;28;20475;-59
2020/12/14 00:41:26;;;;;;;2.00;0.90;;;5.40;99.90;;;;;;5096407;28;20418;-58
2020/12/14 00:43:53;;;;;;;1.58;0.85;;;5.30;99.90;;;;;;5096573;28;20910;-59
2020/12/14 00:46:20;;;;;;;1.70;0.73;;;5.30;99.90;;;;;;5095798;28;20430;-59
2020/12/14 00:48:46;;;;;;;1.70;0.70;;;5.20;99.90;;;;;;5096285;28;20472;-58
2020/12/14 00:51:13;;;;;;;1.00;0.60;;;5.20;99.90;;;;;;5096190;28;20417;-59
2020/12/14 00:53:39;;;;;;;1.10;0.70;;;5.20;99.90;;;;;;5096597;28;20448;-59
2020/12/14 00:56:07;;;;;;;1.00;0.70;;;5.20;99.90;;;;;;5096162;28;20417;-59
2020/12/14 00:58:34;;;;;;;1.40;0.80;;;5.20;99.90;;;;;;5096508;28;20805;-59
2020/12/14 01:01:02;;;;;;;1.92;0.90;;;5.20;99.90;;;;;;5095028;28;20414;-59
2020/12/14 01:03:28;;;;;;;3.70;0.70;;;5.20;99.90;;;;;;5096128;28;20495;-59
2020/12/14 01:05:55;;;;;;;1.77;0.73;;;5.20;99.90;;;;;;5095830;28;20522;-57
2020/12/14 01:08:21;;;;;;;1.33;0.80;;;5.10;99.90;;;;;;5095980;28;20479;-59
2020/12/14 01:10:48;;;;;;;1.90;0.70;;;5.10;99.90;;;;;;5096007;28;20776;-58
2020/12/14 01:13:15;;;;;;;1.43;0.70;;;5.00;99.90;;;;;;5096047;28;20837;-58
2020/12/14 01:15:41;;;;;;;1.20;0.70;;;4.90;99.90;;;;;;5096256;28;20414;-58
2020/12/14 01:18:09;;;;;;;1.20;0.80;;;5.00;99.90;;;;;;5096048;28;20429;-58
2020/12/14 01:20:38;;;;;;;1.30;0.70;;;5.00;99.90;;;;;;5095639;28;20479;-58
2020/12/14 01:23:05;;;;;;;1.20;0.70;;;5.10;99.90;;;;;;5095282;28;20429;-58
2020/12/14 01:25:31;;;;;;;1.20;0.80;;;5.00;99.90;;;;;;5095351;28;20461;-58
2020/12/14 01:27:58;;;;;;;1.20;0.63;;;4.80;99.90;;;;;;5095696;28;20430;-59
2020/12/14 01:30:25;;;;;;;1.42;0.77;;;4.80;99.90;;;;;;5095523;28;20460;-58
2020/12/14 01:32:51;;;;;;;1.75;0.80;;;4.70;99.90;;;;;;5095316;28;20430;-58
2020/12/14 01:35:19;;;;;;;1.70;0.80;;;4.70;99.90;;;;;;5095608;28;20449;-58
2020/12/14 01:37:46;;;;;;;1.10;0.60;;;4.60;99.90;;;;;;5094456;28;20425;-58
2020/12/14 01:40:12;;;;;;;0.93;0.70;;;4.60;99.90;;;;;;5094260;28;20894;-58
2020/12/14 01:42:39;;;;;;;1.67;0.70;;;4.60;99.90;;;;;;5094043;28;20457;-58
2020/12/14 01:45:06;;;;;;;1.10;0.70;;;4.60;99.90;;;;;;5093816;28;20921;-58
2020/12/14 01:47:37;;;;;;;1.13;0.70;;;4.70;99.90;;;;;;5094161;28;20758;-58
2020/12/14 01:50:04;;;;;;;1.27;0.70;;;4.70;99.90;;;;;;5094276;28;20418;-58
2020/12/14 01:52:32;;;;;;;1.30;0.70;;;4.60;99.90;;;;;;5094694;28;20426;-58
2020/12/14 01:55:00;;;;;;;1.58;0.80;;;4.60;99.90;;;;;;5095510;28;20437;-57
2020/12/14 01:57:27;;;;;;;1.30;0.70;;;4.60;99.90;;;;;;5095062;28;20789;-57
2020/12/14 01:59:57;;;;;;;1.60;0.68;;;4.60;99.90;;;;;;5095520;28;20418;-58
2020/12/14 02:02:23;;;;;;;1.95;0.70;;;4.60;99.90;;;;;;5094885;28;20426;-58
2020/12/14 02:04:50;;;;;;;1.67;0.60;;;4.70;99.90;;;;;;5094955;28;20910;-58
2020/12/14 02:07:17;;;;;;;1.10;0.70;;;4.70;99.90;;;;;;5094990;28;20479;-58
2020/12/14 02:09:45;;;;;;;1.55;0.68;;;4.80;99.90;;;;;;5094832;28;20781;-58
2020/12/14 02:12:12;;;;;;;1.00;0.60;;;4.80;99.90;;;;;;5094701;28;20491;-59
2020/12/14 02:14:38;;;;;;;1.50;0.80;;;4.90;99.90;;;;;;5094618;28;20726;-58
2020/12/14 02:17:05;;;;;;;1.10;0.70;;;4.90;99.90;;;;;;5094624;28;20484;-58
2020/12/14 02:19:32;;;;;;;1.10;0.70;;;4.90;99.90;;;;;;5094461;28;20926;-59
2020/12/14 02:21:58;;;;;;;1.80;0.70;;;4.90;99.90;;;;;;5094221;28;20475;-58
2020/12/14 02:24:25;;;;;;;1.10;0.63;;;4.90;99.90;;;;;;5094137;28;20438;-58
2020/12/14 02:26:52;;;;;;;1.10;0.60;;;4.70;99.90;;;;;;5094217;28;20469;-57
2020/12/14 02:29:19;;;;;;;1.42;0.75;;;4.60;99.90;;;;;;5094967;28;20479;-59
2020/12/14 02:31:46;;;;;;;1.10;0.70;;;4.70;99.90;;;;;;5094763;28;20577;-56
2020/12/14 02:34:13;;;;;;;1.20;0.70;;;4.70;99.90;;;;;;5094536;28;20719;-57
2020/12/14 02:36:41;;;;;;;1.23;0.70;;;4.70;99.90;;;;;;5094726;28;20433;-58
2020/12/14 02:39:07;;;;;;;1.20;0.80;;;4.70;99.90;;;;;;5094670;28;20414;-58
2020/12/14 02:41:35;;;;;;;1.20;0.60;;;4.70;99.90;;;;;;5095097;28;20788;-58
2020/12/14 02:44:02;;;;;;;1.00;0.60;;;4.70;99.90;;;;;;5094271;28;20417;-58
2020/12/14 02:46:28;;;;;;;1.50;0.63;;;4.80;99.90;;;;;;5094131;28;20429;-58
2020/12/14 02:48:54;;;;;;;1.00;0.60;;;4.80;99.90;;;;;;5094535;28;20414;-58
2020/12/14 02:51:21;;;;;;;0.80;0.60;;;4.70;99.90;;;;;;5096356;28;20488;-58
2020/12/14 02:53:48;;;;;;;1.10;0.60;;;4.90;99.90;;;;;;5098248;28;20448;-58
2020/12/14 02:56:16;;;;;;;1.20;0.60;;;4.90;99.90;;;;;;5098642;28;20405;-58
2020/12/14 02:58:44;;;;;;;1.00;0.60;;;5.00;99.90;;;;;;5098548;28;20418;-58
2020/12/14 03:01:10;;;;;;;1.30;0.60;;;5.00;99.90;;;;;;5098822;28;20420;-56
2020/12/14 03:03:37;;;;;;;1.60;0.60;;;5.20;99.90;;;;;;5098387;28;20845;-57
2020/12/14 03:06:03;;;;;;;1.00;0.65;;;5.10;99.90;;;;;;5098225;28;20854;-58
2020/12/14 03:08:30;;;;;;;1.00;0.60;;;5.00;99.90;;;;;;5098299;28;20718;-57
2020/12/14 03:10:56;;;;;;;1.00;0.60;;;5.00;99.90;;;;;;5098516;28;20417;-56
2020/12/14 03:13:23;;;;;;;0.93;0.60;;;5.00;99.90;;;;;;5098554;28;20426;-58
2020/12/14 03:15:50;;;;;;;1.10;0.60;;;4.80;99.90;;;;;;5098305;28;20475;-58
2020/12/14 03:18:17;;;;;;;2.13;0.60;;;4.70;99.90;;;;;;5098382;28;20426;-57
2020/12/14 03:20:43;;;;;;;0.90;0.60;;;4.70;99.90;;;;;;5098124;28;20410;-57
2020/12/14 03:23:10;;;;;;;1.55;0.60;;;4.70;99.90;;;;;;5097614;28;20455;-57
2020/12/14 03:25:36;;;;;;;0.90;0.60;;;4.70;99.90;;;;;;5097882;28;20756;-57
2020/12/14 03:28:03;;;;;;;1.50;0.60;;;4.70;99.90;;;;;;5097830;28;20482;-58
2020/12/14 03:30:29;;;;;;;0.85;0.50;;;4.70;99.90;;;;;;5097255;28;20430;-58
2020/12/14 03:32:57;;;;;;;0.90;0.50;;;4.60;99.90;;;;;;5097854;28;20478;-58
2020/12/14 03:35:23;;;;;;;1.80;0.60;;;4.50;99.90;;;;;;5097733;28;20463;-57
2020/12/14 03:37:49;;;;;;;1.00;0.60;;;4.50;99.90;;;;;;5098079;28;20479;-54
2020/12/14 03:40:16;;;;;;;1.50;0.60;;;4.50;99.90;;;;;;5097463;28;20453;-59
2020/12/14 03:42:43;;;;;;;1.10;0.60;;;4.50;99.90;;;;;;5097611;28;20710;-58
2020/12/14 03:45:09;;;;;;;1.00;0.60;;;4.40;99.90;;;;;;5097672;28;20429;-58
2020/12/14 03:47:36;;;;;;;0.80;0.60;;;4.50;99.90;;;;;;5097398;28;20453;-58
2020/12/14 03:50:03;;;;;;;0.98;0.60;;;4.60;99.90;;;;;;5096807;28;20768;-58
2020/12/14 03:52:30;;;;;;;1.08;0.60;;;4.50;99.90;;;;;;5097480;28;20468;-59
2020/12/14 03:54:56;;;;;;;1.10;0.70;;;4.40;99.90;;;;;;5097209;28;20471;-58
2020/12/14 03:57:23;;;;;;;1.25;0.63;;;4.40;99.90;;;;;;5097240;28;20538;-58
2020/12/14 03:59:49;;;;;;;1.77;0.70;;;4.40;99.90;;;;;;5097773;28;20818;-58
2020/12/14 04:02:16;;;;;;;1.13;0.60;;;4.40;99.90;;;;;;5096257;28;20423;-58
2020/12/14 04:04:43;;;;;;;1.40;0.70;;;4.30;99.90;;;;;;5097306;28;20463;-58
2020/12/14 04:07:10;;;;;;;1.30;0.60;;;4.30;99.90;;;;;;5097110;28;20441;-58
2020/12/14 04:09:37;;;;;;;1.00;0.60;;;4.20;99.90;;;;;;5096771;28;20449;-58
2020/12/14 04:12:03;;;;;;;1.40;0.70;;;4.30;99.90;;;;;;5097155;28;20801;-57
2020/12/14 04:14:30;;;;;;;1.02;0.60;;;4.20;99.90;;;;;;5097127;28;20814;-57
2020/12/14 04:16:56;;;;;;;1.30;0.60;;;4.10;99.90;;;;;;5097049;28;20418;-58
2020/12/14 04:19:23;;;;;;;1.65;0.70;;;4.20;99.90;;;;;;5096459;28;20418;-57
2020/12/14 04:21:51;;;;;;;1.40;0.60;;;4.30;99.90;;;;;;5096899;28;20422;-58
2020/12/14 04:24:18;;;;;;;2.40;0.60;;;4.30;99.90;;;;;;5096375;28;20725;-58
2020/12/14 04:26:45;;;;;;;1.07;0.70;;;4.20;99.90;;;;;;5096524;28;20433;-58
2020/12/14 04:29:11;;;;;;;1.20;0.60;;;4.10;99.90;;;;;;5096819;28;20421;-58
2020/12/14 04:31:38;;;;;;;1.70;0.70;;;4.00;99.90;;;;;;5096765;28;20482;-58
2020/12/14 04:34:04;;;;;;;0.90;0.60;;;4.00;99.90;;;;;;5096879;28;20903;-58
2020/12/14 04:36:31;;;;;;;1.00;0.60;;;4.00;99.90;;;;;;5096015;28;20467;-57
2020/12/14 04:38:57;;;;;;;1.40;0.60;;;4.10;99.90;;;;;;5094389;28;20422;-57
2020/12/14 04:41:25;;;;;;;1.00;0.70;;;4.00;99.90;;;;;;5095050;28;20538;-58
2020/12/14 04:43:51;;;;;;;1.10;0.60;;;4.00;99.90;;;;;;5094638;28;20478;-58
2020/12/14 04:46:19;;;;;;;1.33;0.60;;;3.90;99.90;;;;;;5094836;28;20795;-58
2020/12/14 04:48:46;;;;;;;1.00;0.60;;;3.80;99.90;;;;;;5095096;28;20845;-57
2020/12/14 04:51:12;;;;;;;1.40;0.63;;;3.80;99.90;;;;;;5094845;28;20849;-58
2020/12/14 04:53:41;;;;;;;1.08;0.70;;;3.80;99.90;;;;;;5095919;28;20774;-57
2020/12/14 04:56:10;;;;;;;1.20;0.70;;;3.80;99.90;;;;;;5096301;28;20440;-57
2020/12/14 04:58:39;;;;;;;1.50;0.80;;;3.80;99.90;;;;;;5095554;28;20444;-58
2020/12/14 05:01:06;;;;;;;1.20;0.70;;;3.90;99.90;;;;;;5095759;28;20714;-58
2020/12/14 05:03:32;;;;;;;1.23;0.70;;;4.00;99.90;;;;;;5095661;28;20477;-57
2020/12/14 05:05:59;;;;;;;1.38;0.70;;;4.00;99.90;;;;;;5096148;28;20566;-58
2020/12/14 05:08:26;;;;;;;1.10;0.60;;;4.00;99.90;;;;;;5095826;28;20837;-57
2020/12/14 05:10:53;;;;;;;1.40;0.80;;;4.00;99.90;;;;;;5095956;28;20418;-58
2020/12/14 05:13:20;;;;;;;1.50;0.70;;;4.10;99.90;;;;;;5095430;28;20467;-57
2020/12/14 05:15:47;;;;;;;1.10;0.60;;;4.10;99.90;;;;;;5095599;28;20410;-57
2020/12/14 05:18:15;;;;;;;1.15;0.70;;;4.10;99.90;;;;;;5095012;28;20414;-56
2020/12/14 05:20:43;;;;;;;1.80;0.70;;;4.00;99.90;;;;;;5094997;28;20471;-57
2020/12/14 05:23:11;;;;;;;1.30;0.70;;;4.00;99.90;;;;;;5094861;28;20442;-56
2020/12/14 05:25:38;;;;;;;1.08;0.70;;;3.90;99.90;;;;;;5094510;28;20433;-57
2020/12/14 05:28:07;;;;;;;2.00;0.70;;;3.80;99.90;;;;;;5094427;28;20421;-56
2020/12/14 05:30:35;;;;;;;1.40;0.80;;;3.90;99.90;;;;;;5095289;28;20525;-57
2020/12/14 05:33:03;;;;;;;2.50;0.90;;;3.80;99.90;;;;;;5094832;28;20737;-58
2020/12/14 05:35:34;;;;;;;1.25;0.70;;;3.60;99.90;;;;;;5092146;28;20422;-58
2020/12/14 05:38:14;;;;;;;1.60;0.90;;;3.50;99.90;;;;;;5092669;28;20445;-58
2020/12/14 05:40:42;;;;;;;2.50;0.90;;;3.50;99.90;;;;;;5092753;28;20418;-58
2020/12/14 05:43:10;;;;;;;1.58;0.90;;;3.40;99.90;;;;;;5093201;28;20470;-58
2020/12/14 05:45:37;;;;;;;2.00;0.80;;;3.40;99.90;;;;;;5092888;28;20461;-58
2020/12/14 05:48:04;;;;;;;2.10;0.90;;;3.40;99.90;;;;;;5086642;28;20492;-58
2020/12/14 05:50:31;;;;;;;1.73;0.80;;;3.40;99.90;;;;;;5074792;28;20461;-58
2020/12/14 05:53:04;;;;;;;1.58;0.90;;;3.40;99.90;;;;;;5075185;28;20435;-56
2020/12/14 05:55:34;;;;;;;2.30;0.90;;;3.40;99.90;;;;;;5074929;28;20476;-57
2020/12/14 05:58:03;;;;;;;2.30;0.90;;;3.40;99.90;;;;;;5074692;28;20419;-58
2020/12/14 06:00:31;;;;;;;1.70;0.98;;;3.40;99.90;;;;;;5074565;28;20447;-58
2020/12/14 06:02:58;;;;;;;2.20;0.90;;;3.40;99.90;;;;;;5075110;28;20420;-58
2020/12/14 06:05:26;;;;;;;2.35;1.10;;;3.50;99.90;;;;;;5075019;28;20435;-58
2020/12/14 06:08:00;;;;;;;1.90;0.90;;;3.40;99.90;;;;;;5075032;28;20449;-59
2020/12/14 06:10:31;;;;;;;3.33;0.90;;;3.40;99.90;;;;;;5074053;28;20752;-59
2020/12/14 06:13:07;;;;;;;2.00;1.00;;;3.40;99.90;;;;;;5074108;28;20567;-58
2020/12/14 06:15:35;;;;;;;3.00;1.00;;;3.40;99.90;;;;;;5073144;28;20412;-58
2020/12/14 06:18:02;;;;;;;1.50;0.80;;;3.40;99.90;;;;;;5073527;28;20514;-58
2020/12/14 06:20:31;;;;;;;1.80;0.90;;;3.40;99.90;;;;;;5072974;28;20471;-59
2020/12/14 06:23:02;;;;;;;3.10;1.20;;;3.30;99.90;;;;;;5072972;28;20459;-59
2020/12/14 06:25:30;;;;;;;2.27;0.90;;;3.30;99.90;;;;;;5073718;28;20507;-59
2020/12/14 06:27:57;;;;;;;1.73;1.20;;;3.40;99.90;;;;;;5077379;28;20719;-59
2020/12/14 06:30:32;;;;;;;1.80;0.93;;;3.40;99.90;;;;;;5076007;28;20430;-58
2020/12/14 06:32:59;;;;;;;1.90;1.00;;;3.40;99.90;;;;;;5076603;28;20420;-59
2020/12/14 06:35:42;;;;;;;2.17;1.10;;;3.30;99.90;;;;;;5077195;28;20428;-59
2020/12/14 06:38:09;;;;;;;2.40;0.80;;;3.20;99.90;;;;;;5080563;28;20420;-57
2020/12/14 06:40:57;;;;;;;1.98;0.90;;;3.20;99.90;;;;;;5076362;28;20423;-59
2020/12/14 06:43:31;;;;;;;2.15;0.90;;;3.10;99.90;;;;;;5076860;28;20415;-60
2020/12/14 06:45:58;;;;;;;2.50;1.05;;;3.10;99.90;;;;;;5077157;28;20481;-59
2020/12/14 06:48:41;;;;;;;2.50;1.02;;;3.10;99.90;;;;;;5076043;28;20473;-60
2020/12/14 06:51:10;;;;;;;3.95;1.10;;;3.10;99.90;;;;;;5075878;28;20415;-60
2020/12/14 06:53:45;;;;;;;1.70;0.90;;;3.10;99.90;;;;;;5075063;28;20423;-57
2020/12/14 06:56:13;;;;;;;2.33;0.90;;;3.20;99.90;;;;;;5073728;28;20439;-58
2020/12/14 06:58:41;;;;;;;2.00;0.90;;;3.10;99.90;;;;;;5075895;28;20459;-60
2020/12/14 07:01:34;;;;;;;2.97;1.00;;;3.10;99.90;;;;;;5075920;28;20432;-60
2020/12/14 07:04:03;;;;;;;1.87;1.00;;;3.20;99.90;;;;;;5075895;28;20489;-58
2020/12/14 07:06:30;;;;;;;4.07;1.40;;;3.20;99.90;;;;;;5075689;28;20435;-58
2020/12/14 07:08:57;;;;;;;2.20;1.00;;;3.10;99.90;;;;;;5074568;28;20415;-58
2020/12/14 07:11:25;;;;;;;2.65;1.35;;;3.10;99.90;;;;;;5075050;28;20415;-58
2020/12/14 07:13:53;;;;;;;2.47;1.10;;;3.30;99.90;;;;;;5075662;28;20459;-56
2020/12/14 07:16:27;;;;;;;1.30;0.90;;;3.30;99.90;;;;;;5076590;28;20412;-54
2020/12/14 07:18:54;;;;;;;2.30;1.10;;;3.40;99.90;;;;;;5075764;28;20819;-57
2020/12/14 07:21:21;;;;;;;2.03;1.05;;;3.40;99.90;;;;;;5073952;28;20420;-56
2020/12/14 07:23:48;;;;;;;2.58;1.00;;;3.40;99.90;;;;;;5074129;28;20489;-55
2020/12/14 07:26:16;;;;;;;3.50;1.20;;;3.30;99.90;;;;;;5074042;28;20435;-58
2020/12/14 07:28:45;;;;;;;1.83;1.17;;;3.30;99.90;;;;;;5076014;28;20502;-56
2020/12/14 07:31:14;;;;;;;2.80;1.20;;;3.30;99.90;;;;;;5074703;28;20430;-57
2020/12/14 07:33:49;;;;;;;3.50;1.20;;;3.20;99.90;;;;;;5074849;28;20728;-57
2020/12/14 07:36:15;;;;;;;2.10;1.10;;;3.30;99.90;;;;;;5073513;28;20427;-57
2020/12/14 07:38:54;;;;;;;3.00;1.10;;;3.40;99.90;;;;;;5073891;28;20423;-57
2020/12/14 07:41:22;;;;;;;3.45;1.23;;;3.50;99.90;;;;;;5071935;28;20439;-57
2020/12/14 07:43:54;;;;;;;1.88;1.00;;;3.60;99.90;;;;;;5071827;28;20459;-57
2020/12/14 07:46:30;;;;;;;2.85;1.10;;;3.70;99.90;;;;;;5072367;28;20751;-57
2020/12/14 07:49:05;;;;;;;2.80;1.30;;;3.80;99.90;;;;;;5074165;28;20912;-55
2020/12/14 07:51:32;;;;;;;3.95;1.10;;;3.80;99.90;;;;;;5074124;28;20459;-54
2020/12/14 07:54:08;;;;;;;5.10;2.00;;;3.80;99.90;;;;;;5074818;28;20435;-55
2020/12/14 07:56:44;;;;;;;4.32;1.67;;;3.80;99.90;;;;;;5085710;28;20448;-54
2020/12/14 07:59:24;;;;;;;5.20;2.92;;;3.80;99.90;;;;;;5085343;28;20439;-54
2020/12/14 08:01:51;;;;;;;2.80;1.00;;;3.80;99.90;;;;;;5055121;28;20487;-53
2020/12/14 08:04:25;;;;;;;4.20;1.10;;;3.80;99.90;;;;;;5078912;28;20511;-55
2020/12/14 08:06:52;;;;;;;2.13;1.20;;;3.80;99.90;;;;;;5073428;28;20431;-54
2020/12/14 08:09:22;;;;;;;2.40;1.10;;;3.80;99.90;;;;;;5065028;28;20461;-56
2020/12/14 08:11:50;;;;;;;3.17;1.20;;;3.90;99.90;;;;;;5062630;28;20419;-54
2020/12/14 08:14:18;;;;;;;2.97;1.42;;;3.90;99.90;;;;;;5073889;28;20463;-55
2020/12/14 08:16:51;;;;;;;2.60;1.20;;;4.00;99.90;;;;;;5070370;28;20477;-55
2020/12/14 08:19:19;;;;;;;3.20;1.20;;;4.10;99.90;;;;;;5074842;28;20495;-54
2020/12/14 08:22:03;;;;;;;2.72;1.50;;;4.10;99.90;;;;;;5072837;28;20455;-58
2020/12/14 08:24:31;;;;;;;3.00;1.20;;;4.20;99.90;;;;;;5074260;28;20431;-57
2020/12/14 08:27:00;;;;;;;2.97;1.30;;;4.20;99.90;;;;;;5073199;28;20489;-57
2020/12/14 08:29:29;;;;;;;2.38;1.20;;;4.20;99.90;;;;;;5073802;28;20438;-57
2020/12/14 08:31:58;;;;;;;3.72;1.55;;;4.20;99.90;;;;;;5074412;28;20434;-58
2020/12/14 08:34:32;;;;;;;3.10;1.23;;;4.20;99.90;;;;;;5075284;28;20742;-58
2020/12/14 08:36:59;;;;;;;3.20;1.20;;;4.30;99.90;;;;;;5072924;28;20431;-58
2020/12/14 08:39:25;;;;;;;3.10;1.13;;;4.30;99.90;;;;;;5074434;28;20731;-60
2020/12/14 08:42:08;;;;;;;3.45;1.25;;;4.40;99.90;;;;;;5078158;28;20416;-58
2020/12/14 08:44:36;;;;;;;3.03;1.50;;;4.40;99.90;;;;;;5071501;28;20489;-59
2020/12/14 08:47:12;;;;;;;2.47;1.17;;;4.50;99.90;;;;;;5070809;28;20461;-58
2020/12/14 08:49:38;;;;;;;3.05;1.30;;;4.50;99.90;;;;;;5091106;28;20417;-59
2020/12/14 08:52:05;;;;;;;5.30;1.60;;;4.60;99.90;;;;;;5090599;28;20475;-60
2020/12/14 08:54:32;;;;;;;4.55;2.40;;;4.60;99.90;;;;;;5083831;28;20481;-60
2020/12/14 08:57:01;;;;;;;2.28;1.30;;;4.80;99.90;;;;;;5071740;28;20469;-59
2020/12/14 08:59:28;;;;;;;2.60;1.30;;;4.80;99.90;;;;;;5072814;28;20435;-60
2020/12/14 09:01:56;;;;;;;2.10;1.10;;;4.70;99.90;;;;;;5073705;28;20415;-59
2020/12/14 09:04:31;;;;;;;4.10;1.50;;;4.80;99.90;;;;;;5071775;28;20454;-60
2020/12/14 09:06:58;;;;;;;4.45;1.50;;;4.80;99.90;;;;;;5072811;28;20586;-60
2020/12/14 09:09:33;;;;;;;3.65;1.15;;;4.90;99.90;;;;;;5072793;28;20904;-59
2020/12/14 09:12:00;;;;;;;4.70;1.60;;;4.90;99.90;;;;;;5071232;28;20856;-59
2020/12/14 09:14:29;;;;;;;3.47;1.40;;;5.00;99.90;;;;;;5081910;28;20429;-59
2020/12/14 09:16:58;;;;;;;2.30;1.20;;;5.00;99.90;;;;;;5071611;28;20721;-60
2020/12/14 09:19:27;;;;;;;2.42;1.20;;;5.10;99.90;;;;;;5071376;28;20473;-60
2020/12/14 09:21:55;;;;;;;1.85;1.02;;;5.20;99.90;;;;;;5071482;28;20489;-60
2020/12/14 09:24:23;;;;;;;2.33;1.27;;;5.30;99.90;;;;;;5070929;28;20489;-59
2020/12/14 09:26:51;;;;;;;2.65;1.15;;;5.40;99.90;;;;;;5071889;28;20777;-60
2020/12/14 09:29:18;;;;;;;2.50;1.20;;;5.50;99.90;;;;;;5076992;28;20429;-60
2020/12/14 09:31:53;;;;;;;3.03;1.20;;;5.50;99.90;;;;;;5086028;28;20479;-60
2020/12/14 09:34:20;;;;;;;2.40;1.10;;;5.60;99.90;;;;;;5071736;28;20434;-60
2020/12/14 09:36:50;;;;;;;2.60;1.00;;;5.60;99.90;;;;;;5070906;28;20433;-60
2020/12/14 09:39:17;;;;;;;2.00;1.00;;;5.70;99.90;;;;;;5070461;28;20453;-60
2020/12/14 09:41:43;;;;;;;2.60;1.00;;;5.80;99.90;;;;;;5073414;28;20427;-58
2020/12/14 09:44:10;;;;;;;2.10;1.10;;;5.80;99.90;;;;;;5085074;28;20508;-58
2020/12/14 09:46:37;;;;;;;2.20;1.00;;;5.90;99.90;;;;;;5078193;28;20817;-59
2020/12/14 09:49:04;;;;;;;2.20;1.00;;;6.00;99.90;;;;;;5076779;28;20461;-58
2020/12/14 09:51:33;;;;;;;2.20;1.10;;;6.10;99.90;;;;;;5077315;28;20730;-59
2020/12/14 09:54:00;;;;;;;2.30;1.00;;;6.00;99.90;;;;;;5085321;28;20443;-58
2020/12/14 09:56:27;;;;;;;2.20;1.00;;;6.10;99.90;;;;;;5071864;28;20782;-59
2020/12/14 09:58:53;;;;;;;2.00;1.10;;;6.20;99.90;;;;;;5074228;28;20523;-59
2020/12/14 10:01:20;;;;;;;2.17;1.10;;;6.30;99.90;;;;;;5084014;28;20538;-58
2020/12/14 10:03:47;;;;;;;2.10;1.08;;;6.40;99.90;;;;;;5069192;28;20486;-59
2020/12/14 10:06:19;;;;;;;2.97;1.20;;;6.50;99.90;;;;;;5070579;28;20427;-58
2020/12/14 10:08:45;;;;;;;2.60;1.13;;;6.60;99.90;;;;;;5066242;28;20439;-59
2020/12/14 10:11:12;;;;;;;1.80;1.00;;;6.60;99.90;;;;;;5071164;28;20481;-60
2020/12/14 10:13:39;;;;;;;1.60;1.00;;;6.70;99.90;;;;;;5071801;28;20489;-60
2020/12/14 10:16:06;;;;;;;2.25;1.08;;;6.70;99.90;;;;;;5071233;28;20645;-59
2020/12/14 10:18:33;;;;;;;2.53;1.20;;;6.80;99.90;;;;;;5081781;28;20874;-59
2020/12/14 10:21:01;;;;;;;1.83;1.02;;;6.90;99.90;;;;;;5071549;28;20420;-59
2020/12/14 10:23:28;;;;;;;2.03;1.00;;;7.00;99.90;;;;;;5070814;28;20520;-59
2020/12/14 10:25:55;;;;;;;2.83;1.10;;;7.10;99.90;;;;;;5068571;28;20427;-59
2020/12/14 10:28:21;;;;;;;2.70;1.00;;;7.10;99.90;;;;;;5066749;28;20493;-59
2020/12/14 10:30:48;;;;;;;2.70;1.10;;;7.10;99.90;;;;;;5071193;28;20439;-60
2020/12/14 10:33:15;;;;;;;3.22;1.10;;;7.20;99.90;;;;;;5070491;28;20496;-60
2020/12/14 10:35:41;;;;;;;2.40;1.00;;;7.20;99.90;;;;;;5068450;28;20444;-60
2020/12/14 10:38:08;;;;;;;1.88;1.00;;;7.30;99.90;;;;;;5072127;28;20424;-59
2020/12/14 10:40:35;;;;;;;3.40;1.60;;;7.30;99.90;;;;;;5072452;28;20712;-60
2020/12/14 10:43:02;;;;;;;1.45;0.90;;;7.40;99.90;;;;;;5074937;28;20509;-60
2020/12/14 10:45:28;;;;;;;2.30;1.00;;;7.40;99.90;;;;;;5071984;28;20886;-59
2020/12/14 10:47:54;;;;;;;1.60;0.90;;;7.50;99.90;;;;;;5074752;28;20427;-59
2020/12/14 10:50:23;;;;;;;1.70;0.95;;;7.50;99.90;;;;;;5072421;28;20793;-59
2020/12/14 10:52:50;;;;;;;2.42;1.10;;;7.60;99.90;;;;;;5071298;28;20502;-59
2020/12/14 10:55:18;;;;;;;2.45;1.05;;;7.60;99.90;;;;;;5071217;28;20431;-60
2020/12/14 10:57:45;;;;;;;2.07;1.00;;;7.60;99.90;;;;;;5071642;28;20427;-60
2020/12/14 11:00:12;;;;;;;1.38;0.90;;;7.70;99.90;;;;;;5083028;28;20431;-60
2020/12/14 11:02:39;;;;;;;1.90;1.00;;;7.70;99.90;;;;;;5070872;28;20477;-59
2020/12/14 11:05:07;;;;;;;1.60;0.90;;;7.70;99.90;;;;;;5070916;28;20439;-59
2020/12/14 11:07:34;;;;;;;2.00;0.90;;;7.70;99.90;;;;;;5075665;28;20489;-59
2020/12/14 11:10:01;;;;;;;2.80;0.90;;;7.80;99.90;;;;;;5076075;28;20518;-59
2020/12/14 11:12:27;;;;;;;1.50;0.70;;;7.80;99.90;;;;;;5060228;28;20433;-59
2020/12/14 11:14:55;;;;;;;1.48;0.90;;;7.80;99.90;;;;;;5055156;28;20470;-59
2020/12/14 11:17:22;;;;;;;2.00;0.90;;;7.90;99.90;;;;;;5062718;28;20430;-61
2020/12/14 11:19:48;;;;;;;1.75;0.95;;;8.00;99.90;;;;;;5073257;28;20435;-61
2020/12/14 11:22:15;;;;;;;1.00;0.80;;;8.10;99.90;;;;;;5075953;28;20431;-60
2020/12/14 11:24:42;;;;;;;1.50;0.80;;;8.20;99.90;;;;;;5066874;28;20483;-58
2020/12/14 11:27:08;;;;;;;1.92;0.90;;;8.20;99.90;;;;;;5077266;28;20423;-59
2020/12/14 11:29:35;;;;;;;2.00;0.90;;;8.30;99.90;;;;;;5095950;28;20447;-61
2020/12/14 11:32:03;;;;;;;1.45;0.80;;;8.30;99.90;;;;;;5075265;28;20918;-59
2020/12/14 11:34:30;;;;;;;1.20;0.80;;;8.30;99.90;;;;;;5068135;28;20440;-60
2020/12/14 11:36:56;;;;;;;1.73;0.80;;;8.40;99.90;;;;;;5053961;28;20479;-60
2020/12/14 11:39:23;;;;;;;1.30;0.80;;;8.40;99.90;;;;;;5065420;28;20439;-62
2020/12/14 11:41:50;;;;;;;1.20;0.77;;;8.60;99.90;;;;;;5073794;28;20439;-61
2020/12/14 11:44:18;;;;;;;2.58;0.90;;;8.60;99.90;;;;;;5079235;28;20543;-60
2020/12/14 11:46:48;;;;;;;1.00;0.60;;;8.60;99.90;;;;;;5074300;28;20431;-60
2020/12/14 11:49:16;;;;;;;1.50;0.80;;;8.70;99.90;;;;;;5071910;28;20423;-60
2020/12/14 11:51:42;;;;;;;2.10;1.00;;;8.70;99.90;;;;;;5073014;28;20892;-61
2020/12/14 11:54:09;;;;;;;1.35;0.90;;;8.70;99.90;;;;;;5073223;28;20432;-61
2020/12/14 11:56:35;;;;;;;1.40;0.90;;;8.70;99.90;;;;;;5071293;28;20928;-61
2020/12/14 11:59:02;;;;;;;1.30;0.70;;;8.80;99.90;;;;;;5072832;28;20435;-62
2020/12/14 12:01:28;;;;;;;2.00;0.70;;;8.80;99.90;;;;;;5071606;28;20878;-61
2020/12/14 12:03:55;;;;;;;1.38;0.80;;;8.90;99.90;;;;;;5088797;28;20428;-61
2020/12/14 12:06:28;;;;;;;1.10;0.70;;;9.10;99.90;;;;;;5072132;28;20505;-59
2020/12/14 12:08:55;;;;;;;1.20;0.70;;;9.30;99.90;;;;;;5062292;28;20435;-61
2020/12/14 12:11:22;;;;;;;1.27;0.80;;;9.30;99.90;;;;;;5073125;28;20445;-61
2020/12/14 12:13:48;;;;;;;1.60;0.70;;;9.40;99.90;;;;;;5072799;28;20485;-61
2020/12/14 12:16:15;;;;;;;1.50;0.70;;;9.50;99.90;;;;;;5078268;28;20487;-61
2020/12/14 12:18:42;;;;;;;0.88;0.60;;;9.60;99.90;;;;;;5081764;28;20454;-61
2020/12/14 12:21:10;;;;;;;1.20;0.80;;;9.70;99.90;;;;;;5072430;28;20420;-62
2020/12/14 12:23:37;;;;;;;1.33;0.60;;;9.80;99.90;;;;;;5070632;28;20423;-61
2020/12/14 12:26:03;;;;;;;1.20;0.70;;;9.90;99.90;;;;;;5073344;28;20437;-61
2020/12/14 12:28:30;;;;;;;1.70;0.60;;;9.90;99.90;;;;;;5073333;28;20458;-61
2020/12/14 12:30:57;;;;;;;1.30;0.70;;;9.90;99.90;;;;;;5071793;28;20591;-61
2020/12/14 12:33:23;;;;;;;1.00;0.70;;;10.00;99.90;;;;;;5073027;28;20431;-61
2020/12/14 12:35:50;;;;;;;1.02;0.70;;;10.00;99.90;;;;;;5073380;28;20423;-61
2020/12/14 12:38:17;;;;;;;1.20;0.75;;;9.90;99.90;;;;;;5071384;28;20420;-61
2020/12/14 12:40:44;;;;;;;2.40;0.80;;;9.90;99.90;;;;;;5072324;28;20489;-61
2020/12/14 12:43:11;;;;;;;1.50;0.70;;;10.10;99.90;;;;;;5070682;28;20428;-61
2020/12/14 12:45:37;;;;;;;1.10;0.80;;;10.20;99.90;;;;;;5071116;28;20797;-61
2020/12/14 12:48:04;;;;;;;1.40;0.80;;;10.30;99.90;;;;;;5071093;28;20838;-62
2020/12/14 12:50:32;;;;;;;1.10;0.70;;;10.40;99.90;;;;;;5071007;28;20491;-62
2020/12/14 12:52:59;;;;;;;2.50;0.60;;;10.50;99.90;;;;;;5073493;28;20420;-62
2020/12/14 12:55:26;;;;;;;1.20;0.70;;;10.50;99.90;;;;;;5083082;28;20434;-61
2020/12/14 12:57:57;;;;;;;2.10;0.70;;;10.50;99.90;;;;;;5070705;28;20424;-61
2020/12/14 13:00:26;;;;;;;1.40;0.60;;;10.60;99.90;;;;;;5086812;28;20574;-61
2020/12/14 13:02:53;;;;;;;0.90;0.60;;;10.60;99.90;;;;;;5065969;28;20428;-61